Terminal Aerodrome Forecast
Issued by NWS

Home | Current Version | Previous Version | Text Only | Print | Product List | Glossary On
Versions: 1 2 3 4 5 6 7 8 9 10 11 12 13 14 15 16 17
000
FTUS43 KGLD 161100
TAFMCK
TAF
KMCK 161132Z 1612/1712 30018G26KT P6SM SCT120 BKN250
     FM161900 33016G22KT P6SM SCT070
     FM170000 36013KT P6SM SCT070
     FM170900 03005KT P6SM BKN030=

USA.gov is the U.S. government's official web portal to all federal, state and local government web resources and services.